createdAt,value
2023-02-25T00:02:41.865Z,37.20
2023-02-25T00:06:39.877Z,35.00
2023-02-25T00:10:37.846Z,36.40
2023-02-25T00:14:38.281Z,33.50
2023-02-25T00:18:37.713Z,38.50
2023-02-25T00:22:35.778Z,36.00
2023-02-25T00:26:34.780Z,38.40
2023-02-25T00:30:32.701Z,36.20
2023-02-25T00:34:30.743Z,37.50
2023-02-25T00:38:29.751Z,33.20
2023-02-25T00:42:33.702Z,35.90
2023-02-25T00:46:32.872Z,34.90
2023-02-25T00:50:30.693Z,31.20
2023-02-25T00:54:30.747Z,29.20
2023-02-25T00:58:28.713Z,30.60
2023-02-25T01:02:27.749Z,31.70
2023-02-25T01:06:25.684Z,20.00
2023-02-25T01:10:24.667Z,15.60
2023-02-25T01:14:26.675Z,13.50
2023-02-25T01:18:26.727Z,13.60
2023-02-25T01:22:24.650Z,12.10
2023-02-25T01:26:24.946Z,11.30
2023-02-25T01:30:22.654Z,12.00
2023-02-25T01:34:22.670Z,10.60
2023-02-25T01:38:20.629Z,9.50
2023-02-25T01:42:27.650Z,9.80
2023-02-25T01:46:26.006Z,10.90
2023-02-25T01:50:23.839Z,11.10
2023-02-25T01:54:23.642Z,11.20
2023-02-25T01:58:22.652Z,8.50
2023-02-25T02:02:23.699Z,11.30
2023-02-25T02:06:35.616Z,11.00
2023-02-25T02:10:33.588Z,10.00
2023-02-25T02:14:35.655Z,10.00
2023-02-25T02:18:35.604Z,11.90
2023-02-25T02:22:48.638Z,10.70
2023-02-25T02:27:04.582Z,9.80
2023-02-25T02:31:33.660Z,10.80
2023-02-25T02:35:41.529Z,10.30
2023-02-25T02:39:43.615Z,13.30
2023-02-25T02:44:15.587Z,11.30
2023-02-25T02:48:17.665Z,13.40
2023-02-25T02:52:26.510Z,11.10
2023-02-25T02:56:28.609Z,11.60
2023-02-25T03:00:33.554Z,13.60
2023-02-25T03:04:35.624Z,11.50
2023-02-25T03:08:43.516Z,15.50
2023-02-25T03:12:41.510Z,15.70
2023-02-25T03:16:45.579Z,13.90
2023-02-25T03:20:50.532Z,15.90
2023-02-25T03:25:08.511Z,15.80
2023-02-25T03:29:06.532Z,16.50
2023-02-25T03:33:10.497Z,15.70
2023-02-25T03:37:13.548Z,20.20
2023-02-25T03:41:17.566Z,13.30
2023-02-25T03:45:19.522Z,15.60
2023-02-25T03:49:18.704Z,14.70
2023-02-25T03:53:16.541Z,18.70
2023-02-25T03:57:23.509Z,17.50
2023-02-25T04:01:25.536Z,17.00
2023-02-25T04:05:23.511Z,20.70
2023-02-25T04:09:21.526Z,16.00
2023-02-25T04:13:19.502Z,18.30
2023-02-25T04:17:18.501Z,16.10
2023-02-25T04:21:16.483Z,19.10
2023-02-25T04:25:14.458Z,22.80
2023-02-25T04:29:12.425Z,22.60
2023-02-25T04:33:10.523Z,21.90
2023-02-25T04:37:08.409Z,27.50
2023-02-25T04:41:06.427Z,28.70
2023-02-25T04:45:04.518Z,29.00
2023-02-25T04:49:02.413Z,28.20
2023-02-25T04:53:00.388Z,31.20
2023-02-25T04:56:58.411Z,33.70
2023-02-25T05:00:56.371Z,31.00
2023-02-25T05:04:55.436Z,31.30
2023-02-25T05:08:53.403Z,27.00
2023-02-25T05:12:51.435Z,25.10
2023-02-25T05:16:49.501Z,28.10
2023-02-25T05:20:47.509Z,24.50
2023-02-25T05:24:45.332Z,26.40
2023-02-25T05:28:43.382Z,27.90
2023-02-25T05:32:41.558Z,25.80
2023-02-25T05:36:39.433Z,25.80
2023-02-25T05:40:39.339Z,22.30
2023-02-25T05:44:37.383Z,19.30
2023-02-25T05:48:35.354Z,19.40
2023-02-25T05:52:33.387Z,17.50
2023-02-25T05:56:35.344Z,19.80
2023-02-25T06:00:33.343Z,20.90
2023-02-25T06:04:31.347Z,21.90
2023-02-25T06:08:29.355Z,19.50
2023-02-25T06:12:27.377Z,19.90
2023-02-25T06:16:25.675Z,22.60
2023-02-25T06:20:24.310Z,19.00
2023-02-25T06:24:23.315Z,19.70
2023-02-25T06:28:21.264Z,18.90
2023-02-25T06:32:19.418Z,19.90
2023-02-25T06:36:17.247Z,26.50
2023-02-25T06:40:15.338Z,25.50
2023-02-25T06:44:15.714Z,25.20
2023-02-25T06:48:13.276Z,22.50
2023-02-25T06:52:11.354Z,25.30
2023-02-25T06:56:09.290Z,21.30
2023-02-25T07:00:07.303Z,28.90
2023-02-25T07:04:05.368Z,25.00
2023-02-25T07:08:03.268Z,20.00
2023-02-25T07:12:01.246Z,22.80
2023-02-25T07:15:59.237Z,19.80
2023-02-25T07:19:58.322Z,22.50
2023-02-25T07:23:57.204Z,19.70
2023-02-25T07:27:57.189Z,18.80
2023-02-25T07:31:55.490Z,18.60
2023-02-25T07:35:53.311Z,20.00
2023-02-25T07:39:53.247Z,16.80
2023-02-25T07:43:51.326Z,17.90
2023-02-25T07:47:49.219Z,15.60
2023-02-25T07:51:48.302Z,10.30
2023-02-25T07:55:46.278Z,11.80
2023-02-25T07:59:44.177Z,14.80
2023-02-25T08:03:42.166Z,14.90
2023-02-25T08:07:40.232Z,11.60
2023-02-25T08:11:39.110Z,14.30
2023-02-25T08:15:39.217Z,17.50
2023-02-25T08:19:37.129Z,16.90
2023-02-25T08:23:35.309Z,14.10
2023-02-25T08:27:33.115Z,12.70
2023-02-25T08:31:31.282Z,8.80
2023-02-25T08:35:29.091Z,7.50
2023-02-25T08:39:27.082Z,5.50
2023-02-25T08:43:26.134Z,6.40
2023-02-25T08:47:24.115Z,9.40
2023-02-25T08:51:24.468Z,10.00
2023-02-25T08:55:22.113Z,11.10
2023-02-25T08:59:21.063Z,12.00
2023-02-25T09:03:19.052Z,12.20
2023-02-25T09:07:17.056Z,12.30
2023-02-25T09:11:15.089Z,12.90
2023-02-25T09:15:13.071Z,13.60
2023-02-25T09:19:11.112Z,9.40
2023-02-25T09:23:09.186Z,12.50
2023-02-25T09:27:07.234Z,11.80
2023-02-25T09:31:06.139Z,11.90
2023-02-25T09:35:05.165Z,12.30
2023-02-25T09:39:05.202Z,11.50
2023-02-25T09:43:24.167Z,11.90
2023-02-25T09:47:32.036Z,9.80
2023-02-25T09:51:38.049Z,10.80
2023-02-25T09:55:49.129Z,10.80
2023-02-25T09:59:48.105Z,9.40
2023-02-25T10:04:21.062Z,10.70
2023-02-25T10:08:29.081Z,13.60
2023-02-25T10:12:48.996Z,12.90
2023-02-25T10:16:59.015Z,13.50
2023-02-25T10:21:23.410Z,10.30
2023-02-25T10:25:29.093Z,8.60
2023-02-25T10:29:35.980Z,8.50
2023-02-25T10:37:48.141Z,7.30
2023-02-25T10:41:46.060Z,5.30
2023-02-25T10:45:46.089Z,9.30
2023-02-25T10:49:47.959Z,11.20
2023-02-25T10:53:46.933Z,8.60
2023-02-25T10:57:19.867Z,9.10
2023-02-25T11:00:44.404Z,6.60
2023-02-25T11:04:14.720Z,8.40
2023-02-25T11:07:38.873Z,9.00
2023-02-25T11:11:07.270Z,10.20
2023-02-25T11:14:34.003Z,10.70
2023-02-25T11:18:13.030Z,9.30
2023-02-25T11:21:39.460Z,10.00
2023-02-25T11:25:08.412Z,5.80
2023-02-25T11:28:36.998Z,8.70
2023-02-25T11:32:14.790Z,9.10
2023-02-25T11:35:40.233Z,9.30
2023-02-25T11:39:18.569Z,9.70
2023-02-25T11:42:42.474Z,8.00
2023-02-25T11:46:22.492Z,8.60
2023-02-25T11:49:58.768Z,9.50
2023-02-25T11:53:35.912Z,8.20
2023-02-25T11:57:10.756Z,7.50
2023-02-25T12:00:52.128Z,10.20
2023-02-25T12:04:31.160Z,12.70
2023-02-25T12:08:40.314Z,7.20
2023-02-25T12:12:52.838Z,9.00
2023-02-25T12:17:12.894Z,8.50
2023-02-25T12:20:45.774Z,6.50
2023-02-25T12:24:37.053Z,8.40
2023-02-25T12:28:31.236Z,7.40
2023-02-25T12:32:41.792Z,5.50
2023-02-25T12:36:54.809Z,5.30
2023-02-25T12:41:00.997Z,5.20
2023-02-25T12:45:16.998Z,5.30
2023-02-25T12:49:29.796Z,9.50
2023-02-25T12:53:39.733Z,6.50
2023-02-25T12:57:58.808Z,3.90
2023-02-25T13:02:09.777Z,4.00
2023-02-25T13:06:37.762Z,5.40
2023-02-25T13:10:56.758Z,7.00
2023-02-25T13:15:09.744Z,7.10
2023-02-25T13:19:45.829Z,11.00
2023-02-25T13:24:08.741Z,8.20
2023-02-25T13:28:28.747Z,6.40
2023-02-25T13:33:08.822Z,7.40
2023-02-25T13:37:17.853Z,7.70
2023-02-25T13:41:39.842Z,6.00
2023-02-25T13:45:56.874Z,5.90
2023-02-25T13:50:25.839Z,6.70
2023-02-25T13:54:38.758Z,7.00
2023-02-25T13:59:06.737Z,6.90
2023-02-25T14:03:22.679Z,11.00
2023-02-25T14:07:41.727Z,10.00
2023-02-25T14:12:11.595Z,6.90
2023-02-25T14:16:19.712Z,5.30
2023-02-25T14:25:09.652Z,5.10
2023-02-25T14:29:42.687Z,7.60
2023-02-25T14:33:48.716Z,9.40
2023-02-25T14:38:16.628Z,6.50
2023-02-25T14:42:22.787Z,5.10
2023-02-25T14:46:46.641Z,3.30
2023-02-25T14:50:56.601Z,5.30
2023-02-25T14:55:21.655Z,5.90
2023-02-25T15:00:09.660Z,7.10
2023-02-25T15:04:46.620Z,9.10
2023-02-25T15:09:02.717Z,11.00
2023-02-25T15:13:13.607Z,11.90
2023-02-25T15:17:45.659Z,13.90
2023-02-25T15:21:46.655Z,7.40
2023-02-25T15:25:52.603Z,13.20
2023-02-25T15:29:50.578Z,13.90
2023-02-25T15:34:06.682Z,13.60
2023-02-25T15:38:04.605Z,13.30
2023-02-25T15:42:16.560Z,15.20
2023-02-25T15:46:23.599Z,12.20
2023-02-25T15:50:22.640Z,12.10
2023-02-25T15:54:20.586Z,11.90
2023-02-25T15:58:40.131Z,15.50
2023-02-25T16:02:45.565Z,16.40
2023-02-25T16:06:56.629Z,16.60
2023-02-25T16:11:02.505Z,15.10
2023-02-25T16:15:00.583Z,14.70
2023-02-25T16:19:02.508Z,15.10
2023-02-25T16:23:02.592Z,18.40
2023-02-25T16:27:09.602Z,17.90
2023-02-25T16:31:30.544Z,15.90
2023-02-25T16:35:55.344Z,14.60
2023-02-25T16:39:57.516Z,15.90
2023-02-25T16:43:57.512Z,22.80
2023-02-25T16:47:58.471Z,29.80
2023-02-25T16:51:59.481Z,31.80
2023-02-25T16:55:57.590Z,25.50
2023-02-25T16:59:57.533Z,23.00
2023-02-25T17:04:00.495Z,24.10
2023-02-25T17:07:58.471Z,28.90
2023-02-25T17:11:56.461Z,24.30
2023-02-25T17:15:55.460Z,28.50
2023-02-25T17:19:53.533Z,18.40
2023-02-25T17:23:55.509Z,21.20
2023-02-25T17:27:55.547Z,25.80
2023-02-25T17:32:05.515Z,23.80
2023-02-25T17:36:06.447Z,23.70
2023-02-25T17:40:04.404Z,31.20
2023-02-25T17:44:02.450Z,31.70
2023-02-25T17:48:02.434Z,22.20
2023-02-25T17:52:01.440Z,23.10
2023-02-25T17:55:59.414Z,21.60
2023-02-25T18:00:04.518Z,22.10
2023-02-25T18:04:05.818Z,19.00
2023-02-25T18:08:12.604Z,18.90
2023-02-25T18:16:56.390Z,26.20
2023-02-25T18:20:56.372Z,21.00
2023-02-25T18:24:54.384Z,25.20
2023-02-25T18:28:52.309Z,28.00
2023-02-25T18:32:50.671Z,29.20
2023-02-25T18:36:50.363Z,25.40
2023-02-25T18:40:51.380Z,29.00
2023-02-25T18:44:49.318Z,25.20
2023-02-25T18:48:47.315Z,24.80
2023-02-25T18:52:45.311Z,22.90
2023-02-25T18:56:43.304Z,22.80
2023-02-25T19:00:42.275Z,19.90
2023-02-25T19:04:40.414Z,23.20
2023-02-25T19:08:38.268Z,20.90
2023-02-25T19:12:38.286Z,18.80
2023-02-25T19:16:37.320Z,23.30
2023-02-25T19:20:35.409Z,23.20
2023-02-25T19:24:33.530Z,21.80
2023-02-25T19:28:31.308Z,18.00
2023-02-25T19:32:29.363Z,23.40
2023-02-25T19:36:27.269Z,27.20
2023-02-25T19:40:28.258Z,27.70
2023-02-25T19:44:27.264Z,24.40
2023-02-25T19:48:25.221Z,28.40
2023-02-25T19:52:23.218Z,26.20
2023-02-25T19:56:21.260Z,25.20
2023-02-25T20:00:20.227Z,26.30
2023-02-25T20:04:18.385Z,24.30
2023-02-25T20:08:16.271Z,24.30
2023-02-25T20:12:14.190Z,24.90
2023-02-25T20:16:16.237Z,27.50
2023-02-25T20:20:15.321Z,26.50
2023-02-25T20:24:13.519Z,25.90
2023-02-25T20:28:11.392Z,20.40
2023-02-25T20:32:11.314Z,26.00
2023-02-25T20:36:09.190Z,32.70
2023-02-25T20:40:15.251Z,25.50
2023-02-25T20:44:13.246Z,20.40
2023-02-25T20:48:11.214Z,26.70
2023-02-25T20:52:09.109Z,20.90
2023-02-25T20:56:09.237Z,24.10
2023-02-25T21:00:09.191Z,21.20
2023-02-25T21:04:07.191Z,20.60
2023-02-25T21:08:05.122Z,19.40
2023-02-25T21:12:03.271Z,19.90
2023-02-25T21:16:01.153Z,24.30
2023-02-25T21:19:59.197Z,23.80
2023-02-25T21:23:59.081Z,21.40
2023-02-25T21:28:03.314Z,24.50
2023-02-25T21:32:02.086Z,24.50
2023-02-25T21:36:06.160Z,23.60
2023-02-25T21:40:04.080Z,20.60
2023-02-25T21:44:02.114Z,18.40
2023-02-25T21:48:00.358Z,21.20
2023-02-25T21:51:58.114Z,21.70
2023-02-25T21:55:56.082Z,18.70
2023-02-25T21:59:54.108Z,20.60
2023-02-25T22:03:52.162Z,18.80
2023-02-25T22:07:50.137Z,18.70
2023-02-25T22:11:51.028Z,21.30
2023-02-25T22:15:50.100Z,17.30
2023-02-25T22:19:48.087Z,20.30
2023-02-25T22:23:46.077Z,19.00
2023-02-25T22:27:44.002Z,20.10
2023-02-25T22:31:42.155Z,20.50
2023-02-25T22:35:40.027Z,20.70
2023-02-25T22:39:38.006Z,18.00
2023-02-25T22:43:35.988Z,20.20
2023-02-25T22:47:34.002Z,21.40
2023-02-25T22:51:38.967Z,23.90
2023-02-25T22:55:37.075Z,21.20
2023-02-25T22:59:35.079Z,20.60
2023-02-25T23:03:33.013Z,20.40
2023-02-25T23:07:30.969Z,20.60
2023-02-25T23:11:30.982Z,24.70
2023-02-25T23:15:28.954Z,21.90
2023-02-25T23:19:30.068Z,20.00
2023-02-25T23:23:27.942Z,20.20
2023-02-25T23:27:25.990Z,22.40
2023-02-25T23:31:34.996Z,20.70
2023-02-25T23:35:33.060Z,21.00
2023-02-25T23:39:31.001Z,19.50
2023-02-25T23:43:28.970Z,16.50
2023-02-25T23:47:26.901Z,18.90
2023-02-25T23:51:24.912Z,22.30
2023-02-25T23:55:22.904Z,21.50
2023-02-25T23:59:21.918Z,22.70
